EGKB/BQH METAR and TAF weather

Enter ICAO airport designator
Station Type Date Time Source
EGKB METAR 2019/06/18 21:20 UTC NOAA

EGKB 182120Z 25006KT 200V320 2500 +SHRA BKN025 15/14 Q1011


Station Type Date Time Source
EGKB Decoded METAR 2019/06/18 21:20 UTC NOAA

Biggin Hill , United Kingdom (EGKB) 51-19N 000-02E
Jun 18, 2019 - 05:20 PM EDT / 2019.06.18 2120 UTC
Wind: from the WSW (250 degrees) at 7 MPH (6 KT) (direction variable):0
Visibility: 1 mile(s):0
Sky conditions: mostly cloudy
Weather: heavy rain showers
Temperature: 59 F (15 C)
Dew Point: 57 F (14 C)
Relative Humidity: 93%
Pressure (altimeter): 29.85 in. Hg (1011 hPa)
ob: EGKB 182120Z 25006KT 200V320 2500 +SHRA BKN025 15/14 Q1011
cycle: 21

Station Type Date Time Source
EGKB TAF 2018/11/11 18:33 UTC NOAA

TAF EGKB 110723Z 1018/1121 CNL

Example: see airport list